KMDH Weather | Aviation | SIU

Home
Southern Illinois University

CONTACT

SIU.EDU

Aviation - Weather

College of Applied Sciences and Arts

KMDH Weather

NOTICE: Although all weather products are taken from the National Weather Service, this data should be used only as a supplement to a formal weather briefing.

Last Updated: Friday, November 24th, 2017, 9:59 pm
Information on this page is updated every 5 minutes.


METARS

KMDH 250352Z AUTO 20016KT 10SM CLR 13/02 A2976 RMK AO2 SLP079 T01280022

KMDH 250252Z 20017G24KT 10SM CLR 13/02 A2976 RMK AO2 PK WND 21027/0211 SLP079

KMDH 250152Z 19012KT 10SM CLR 13/02 A2974 RMK AO2 SLP070 T01280022

KMWA 250335Z AUTO 21012KT 10SM CLR 14/02 A2978 RMK AO2 T01360016

KMWA 250315Z AUTO 21011G16KT 10SM CLR 14/02 A2978 RMK AO2 T01400015

KMWA 250255Z AUTO 21014G19KT 10SM CLR 14/01 A2977 RMK AO2 T01400014

KMWA 250235Z AUTO 21014G19KT 10SM CLR 14/02 A2976 RMK AO2 T01380015

KMWA 250215Z AUTO 21014G24KT 10SM CLR 14/02 A2976 RMK AO2 T01380015

KMWA 250155Z AUTO 20019G24KT 10SM CLR 14/02 A2974 RMK AO2 T01360018

KMWA 250135Z AUTO 20016G23KT 10SM CLR 14/02 A2974 RMK AO2 T01400017

KMWA 250115Z AUTO 20019G24KT 10SM CLR 14/02 A2975 RMK AO2 T01400017

KCGI 250353Z AUTO 20009KT 10SM CLR 11/02 A2981 RMK AO2 SLP096 T01060022

KCGI 250253Z AUTO 20010G22KT 10SM CLR 12/02 A2980 RMK AO2 SLP090 T01220017 53004

KCGI 250153Z AUTO 19012G20KT 10SM CLR 12/02 A2978 RMK AO2 SLP085 T01220017

KSAR 250335Z AUTO 19008KT 10SM CLR 13/03 A2974 RMK AO2 T01250025

KSAR 250315Z AUTO 20008KT 10SM CLR 13/03 A2974 RMK AO2 T01250025

KSAR 250255Z AUTO 19007KT 10SM CLR 13/03 A2973 RMK AO2 T01280026

KSAR 250235Z AUTO 19012G17KT 10SM CLR 13/02 A2973 RMK AO2 T01330024

KSAR 250215Z AUTO 20011G16KT 10SM CLR 13/02 A2973 RMK AO2 T01330024

KSAR 250155Z AUTO 19013G17KT 10SM CLR 13/03 A2972 RMK AO2 T01320025

KSAR 250135Z AUTO 19013KT 10SM CLR 13/03 A2971 RMK AO2 T01320025

KSAR 250115Z AUTO 19013G21KT 10SM CLR 14/03 A2969 RMK AO2 T01350025

KFAM 250356Z AUTO 22010KT 10SM CLR 14/02 A2977 RMK AO2 SLP076 T01440022

KFAM 250256Z AUTO 22011G19KT 10SM CLR 14/02 A2975 RMK AO2 SLP073 T01440022 53011

KFAM 250156Z AUTO 21010KT 10SM CLR 15/02 A2974 RMK AO2 SLP067 T01500022

KMVN 250356Z AUTO 21012KT 10SM CLR 12/03 A2974 RMK AO2 SLP069 T01220028

KMVN 250256Z AUTO 21013KT 10SM CLR 12/03 A2973 RMK AO2 SLP067 T01170033 53006

KMVN 250156Z AUTO 21015G22KT 10SM CLR 13/03 A2972 RMK AO2 SLP064 T01280028

KHSB 250355Z AUTO 22013G18KT 10SM CLR 13/02 A2979 RMK AO2 T01290019

KCIR 250355Z AUTO 20008KT 10SM CLR 12/02 A2983 RMK AO2 T01160017

KPAH 250353Z 22007G15KT 10SM CLR 12/M01 A2982 RMK AO2 SLP096 T01221006

KPOF 250353Z AUTO 20005KT 10SM CLR 13/02 A2982 RMK AO2 SLP099 T01280022

KFAM 250356Z AUTO 22010KT 10SM CLR 14/02 A2977 RMK AO2 SLP076 T01440022

KBLV 250356Z AUTO 20008KT 10SM SCT180 SCT220 14/03 A2969 RMK AO2 SLP057

KSUS 250354Z 25007KT 10SM CLR 17/03 A2971 RMK AO2 SLP057 T01670033

KCPS 250353Z 21006G15KT 10SM CLR 17/01 A2970 RMK AO2 SLP056 T01670011 $

KSTL 250351Z 24010KT 10SM SCT150 BKN250 18/02 A2970 RMK AO2 SLP055 T01780022

KTBN 250356Z AUTO 26005KT 10SM BKN160 18/01 A2979 RMK AO2 SLP085 T01790005

KVIH 250353Z AUTO 26011KT 10SM CLR 17/02 A2979 RMK AO2 SLP082 T01720022

KENL 250355Z AUTO 20011G15KT 10SM CLR 12/04 A2971 RMK AO2 T01200040

KMTO 250353Z AUTO 20011G19KT 10SM CLR 11/03 A2965 RMK AO2 SLP042 T01060033

KFWC 250355Z AUTO 20005KT 10SM CLR 13/02 A2973 RMK AO1 T01260022

KCUL 250355Z AUTO 21013G17KT 10SM CLR 13/01 A2976 RMK AO2 T01300014

KEVV 250354Z 20012KT 10SM CLR 11/01 A2979 RMK AO2 SLP087 T01110006

KOWB 250356Z 19009KT 10SM CLR 09/00 A2979 RMK AO2 SLP102 T00890000

KEHR 250356Z AUTO 22010KT 10SM CLR 11/01 A2980 RMK AO2 SLP105 T01110011

KCEY 250255Z AUTO 19007G14KT 140V210 10SM CLR 11/M01 A2983 RMK AO1

KHOP 250358Z AUTO 19009KT 10SM CLR 11/M04 A2984 RMK AO2 SLP106 T01111036

KMKL 250353Z AUTO 20012KT 10SM CLR 12/M01 A2988 RMK AO2 SLP116 T01171006

KDYR 250356Z AUTO 19006KT 10SM CLR 12/00 A2987 RMK AO2 SLP131 T01220000 PNO $

KARG 250056Z AUTO 18011KT 10SM 12/03 A2981 RMK AO2 SLP097 T01170028 $

KJBR 250353Z AUTO 20010KT 10SM CLR 13/03 A2985 RMK AO2 SLP106 T01330028 $

KUNO 250353Z AUTO 22006KT 10SM CLR 14/02 A2983 RMK AO2 SLP094 T01440017 $

KALN 250259Z 21011G16KT 10SM FEW250 14/04 A2968

KALN 250259Z 21011G16KT 10SM FEW250 14/04 A2968

KCOU 250354Z AUTO 32008KT 10SM CLR 16/05 A2977 RMK AO2 SLP077 T01610050

KSPI 250352Z 27009KT 10SM SCT080 11/04 A2968 RMK AO2 PRESRR SLP051 T01060039

KAJG 250355Z AUTO 21014G18KT 10SM CLR 12/01 A2973 RMK AO2 T01150006

KM30 250335Z AUTO 22008G15KT 10SM CLR 13/01 A2983 RMK AO2 T01250007

KDEC 250354Z 22015KT 10SM CLR 12/03 A2966 RMK AO2 SLP045 T01170033

KIJX 250355Z AUTO 10SM SCT080 11/03 A2969 RMK AO2 T01060032


TAFS

KEVV 242328Z 2500/2524 20008KT P6SM SCT120 BKN200

        FM251200 27007KT P6SM SCT200

        FM251600 33010KT P6SM SKC

KCGI 242328Z 2500/2524 19010KT P6SM SCT120 BKN200

        FM251100 29007KT P6SM SCT100 BKN200

        FM251500 35009KT P6SM SKC

KPAH 242328Z 2500/2524 21006KT P6SM SCT120 BKN200

        FM251300 32008KT P6SM SCT200

        FM251700 35010KT P6SM SKC

KSPI 250310Z 2503/2524 26010KT P6SM SCT120 BKN250

        FM250600 30012KT P6SM SCT150

        FM251500 32012G17KT P6SM SKC

KSTL 250332Z 2504/2606 23010KT P6SM BKN150

        FM250500 32008KT P6SM BKN150

        FM250900 33009KT P6SM FEW250

KDEC 242333Z 2500/2524 20012G20KT P6SM BKN250 WS015/23050KT

        FM250300 22014G21KT P6SM SCT100 BKN250

        FM250700 30013KT P6SM SCT150

        FM251500 32012G17KT P6SM SKC

KOWB 242328Z 2500/2524 19008KT P6SM SCT120 BKN200

        FM251200 25008KT P6SM SCT200

        FM251700 33010KT P6SM SKC

KSUS 242320Z 2500/2524 23009KT P6SM BKN150

        FM250600 32008KT P6SM BKN150

        FM250900 31009KT P6SM FEW250

TAF KBLV 250000Z 2500/2606 24009KT 9999 SCT220 WS019/24049KT QNH2965INS

        BECMG 2505/2506 31009KT 9999 SCT100 QNH2974INS

        BECMG 2514/2515 32010G15KT 9999 FEW250 QNH3004INS

        BECMG 2523/2524 29009KT 9999 FEW250 QNH3015INS TX15/2500Z TN06/2512Z


Winds Aloft

VALID 250600Z FOR USE 0200-0900Z. TEMPS NEG ABV 24000

FT 3000 6000 9000 12000 18000 24000 30000 34000 39000
CGI27423129+092834+063028-022928-162644-27275344265351285453
EVV26482931+072533+042535-032737-162747-28265142254751285255
SPI33293023+062942+012843-042850-162758-30257145256451276052
STL33303121+062838+032943-032857-162756-30256344266051285952



Pilot Reports

No pilot reports found for area.



Area Forecast



Significant Weather

WAUS44 KKCI 250245 DFWT WA 250245 AIRMET TANGO FOR TURB AND LLWS VALID UNTIL 250900 AIRMET TURB...OK AR TN NE KS MN IA MO WI LM LS MI LH IL IN KY FROM 70NNE SAW TO SSM TO YVV TO 30SE ECK TO FWA TO CVG TO BWG TO DYR TO 20WNW RZC TO END TO GLD TO 40E AKO TO MCW TO 70NNE SAW MOD TURB BTN FL180 AND FL350. CONDS CONTG BYD 09Z THRU 15Z. OTLK VALID 0900-1500Z...TURB OK AR TN KS MO LM MI LH IL IN KY BOUNDED BY YVV-30SE ECK-FWA-CVG-HNN-HMV-GQO-MEM-RZC-OSW-60ESE SLN-UIN-YVV MOD TURB BTN FL180 AND FL350. CONDS CONTG THRU 15Z.
WSUS32 KKCI 250255 SIGC CONVECTIVE SIGMET...NONE OUTLOOK VALID 250455-250855 TS ARE NOT EXPD.
WAUS43 KKCI 250245 CHIT WA 250245 AIRMET TANGO FOR TURB AND LLWS VALID UNTIL 250900 AIRMET TURB...NE KS MN IA MO WI LM LS MI LH IL IN KY OK AR TN FROM 70NNE SAW TO SSM TO YVV TO 30SE ECK TO FWA TO CVG TO BWG TO DYR TO 20WNW RZC TO END TO GLD TO 40E AKO TO MCW TO 70NNE SAW MOD TURB BTN FL180 AND FL350. CONDS CONTG BYD 09Z THRU 15Z. OTLK VALID 0900-1500Z...TURB KS MO LM MI LH IL IN KY OK AR TN BOUNDED BY YVV-30SE ECK-FWA-CVG-HNN-HMV-GQO-MEM-RZC-OSW-60ESE SLN-UIN-YVV MOD TURB BTN FL180 AND FL350. CONDS CONTG THRU 15Z.
WSUS32 KKCI 250355 SIGC CONVECTIVE SIGMET...NONE OUTLOOK VALID 250555-250955 TS ARE NOT EXPD.